OCO weather

San Luis de Ocosingo Airport
Ocosingo, Chiapas, Mexico

Public forecast

Using degrees Celsius for public forecast. Weather courtesy of forecast.io.

Closest aviation weather report (METAR) to San Luis de Ocosingo Airport

Report is more than 6 hours old.

Closest report is Palenque International Airport, 38.6 nm (71.4 km) N. Retrieved 2019/12/16 00:58 UTC (9 hours ago):

MMPQ 160058Z RTD 09008KT 5SM SKC 27/22 A2978 RMK HZY

Closest aviation forecast (TAF) to San Luis de Ocosingo Airport

Closest forecast is Palenque International Airport, 38.6 nm (71.4 km) N. Retrieved 2019/12/16 06:52 UTC (3 hours ago):

TAF MMPQ 160452Z 1606/1706 09006KT 5SM HZ SKC FM161800 09014KT 6SM HZ SCT030 SCT100 FM170500 09006KT 5SM HZ SKC